sensor_id;sensor_type;location;lat;lon;timestamp;pressure;altitude;pressure_sealevel;temperature;humidity
14689;BME280;7432;48.728;9.154;2023-04-01T00:00:35;95250.53;;;7.52;96.93
14689;BME280;7432;48.728;9.154;2023-04-01T00:03:02;95234.09;;;7.47;96.97
14689;BME280;7432;48.728;9.154;2023-04-01T00:05:29;95248.31;;;7.49;96.77
14689;BME280;7432;48.728;9.154;2023-04-01T00:07:56;95238.69;;;7.51;97.43
14689;BME280;7432;48.728;9.154;2023-04-01T00:10:22;95242.84;;;7.52;97.21
14689;BME280;7432;48.728;9.154;2023-04-01T00:12:48;95250.13;;;7.63;96.44
14689;BME280;7432;48.728;9.154;2023-04-01T00:15:15;95249.66;;;7.60;96.11
14689;BME280;7432;48.728;9.154;2023-04-01T00:17:41;95253.66;;;7.62;95.73
14689;BME280;7432;48.728;9.154;2023-04-01T00:20:09;95250.47;;;7.60;96.92
14689;BME280;7432;48.728;9.154;2023-04-01T00:22:37;95243.59;;;7.61;95.91
14689;BME280;7432;48.728;9.154;2023-04-01T00:25:04;95235.72;;;7.62;96.40
14689;BME280;7432;48.728;9.154;2023-04-01T00:27:31;95248.44;;;7.56;96.42
14689;BME280;7432;48.728;9.154;2023-04-01T00:29:57;95243.03;;;7.51;96.93
14689;BME280;7432;48.728;9.154;2023-04-01T00:32:24;95244.00;;;7.50;97.86
14689;BME280;7432;48.728;9.154;2023-04-01T00:34:51;95245.13;;;7.47;97.13
14689;BME280;7432;48.728;9.154;2023-04-01T00:37:18;95245.25;;;7.54;96.72
14689;BME280;7432;48.728;9.154;2023-04-01T00:39:47;95253.72;;;7.54;96.51
14689;BME280;7432;48.728;9.154;2023-04-01T00:42:13;95251.28;;;7.61;96.49
14689;BME280;7432;48.728;9.154;2023-04-01T00:44:40;95250.59;;;7.67;96.28
14689;BME280;7432;48.728;9.154;2023-04-01T00:47:07;95250.59;;;7.67;97.38
14689;BME280;7432;48.728;9.154;2023-04-01T00:49:36;95258.09;;;7.68;98.15
14689;BME280;7432;48.728;9.154;2023-04-01T00:52:05;95263.06;;;7.70;97.68
14689;BME280;7432;48.728;9.154;2023-04-01T00:54:34;95263.78;;;7.79;97.72
14689;BME280;7432;48.728;9.154;2023-04-01T00:57:06;95264.41;;;7.81;98.02
14689;BME280;7432;48.728;9.154;2023-04-01T00:59:37;95263.41;;;7.82;98.29
14689;BME280;7432;48.728;9.154;2023-04-01T01:02:07;95265.47;;;7.86;98.48
14689;BME280;7432;48.728;9.154;2023-04-01T01:04:35;95270.59;;;7.86;98.69
14689;BME280;7432;48.728;9.154;2023-04-01T01:07:12;95266.16;;;7.80;98.56
14689;BME280;7432;48.728;9.154;2023-04-01T01:09:46;95262.47;;;7.83;97.91
14689;BME280;7432;48.728;9.154;2023-04-01T01:12:20;95257.59;;;7.73;99.07
14689;BME280;7432;48.728;9.154;2023-04-01T01:14:55;95253.97;;;7.82;98.42
14689;BME280;7432;48.728;9.154;2023-04-01T01:17:31;95263.94;;;7.77;98.77
14689;BME280;7432;48.728;9.154;2023-04-01T01:20:20;95255.53;;;7.68;99.92
14689;BME280;7432;48.728;9.154;2023-04-01T01:22:57;95257.22;;;7.76;98.89
14689;BME280;7432;48.728;9.154;2023-04-01T01:25:40;95250.78;;;7.80;99.80
14689;BME280;7432;48.728;9.154;2023-04-01T01:28:25;95228.50;;;7.66;98.75
14689;BME280;7432;48.728;9.154;2023-04-01T01:31:02;95263.25;;;7.83;98.76
14689;BME280;7432;48.728;9.154;2023-04-01T01:34:02;95259.09;;;7.82;99.02
14689;BME280;7432;48.728;9.154;2023-04-01T01:36:34;95259.28;;;7.81;97.80
14689;BME280;7432;48.728;9.154;2023-04-01T01:39:00;95264.47;;;7.72;99.25
14689;BME280;7432;48.728;9.154;2023-04-01T01:41:27;95267.13;;;7.79;98.55
14689;BME280;7432;48.728;9.154;2023-04-01T01:43:56;95268.53;;;7.82;98.79
14689;BME280;7432;48.728;9.154;2023-04-01T01:46:24;95228.84;;;7.63;98.14
14689;BME280;7432;48.728;9.154;2023-04-01T01:48:52;95256.53;;;7.82;98.52
14689;BME280;7432;48.728;9.154;2023-04-01T01:51:21;95266.63;;;7.84;99.01
14689;BME280;7432;48.728;9.154;2023-04-01T01:53:50;95254.84;;;7.74;99.08
14689;BME280;7432;48.728;9.154;2023-04-01T01:56:18;95259.00;;;7.75;98.45
14689;BME280;7432;48.728;9.154;2023-04-01T01:58:48;95255.81;;;7.73;99.83
14689;BME280;7432;48.728;9.154;2023-04-01T02:01:17;95242.72;;;7.68;98.88
14689;BME280;7432;48.728;9.154;2023-04-01T02:03:46;95244.66;;;7.66;99.72
14689;BME280;7432;48.728;9.154;2023-04-01T02:06:16;95254.78;;;7.60;99.45
14689;BME280;7432;48.728;9.154;2023-04-01T02:08:45;95251.28;;;7.61;99.93
14689;BME280;7432;48.728;9.154;2023-04-01T02:11:16;95241.81;;;7.61;98.78
14689;BME280;7432;48.728;9.154;2023-04-01T02:13:49;95254.34;;;7.56;99.32
14689;BME280;7432;48.728;9.154;2023-04-01T02:16:20;95246.81;;;7.55;98.78
14689;BME280;7432;48.728;9.154;2023-04-01T02:18:48;95245.25;;;7.54;100.00
14689;BME280;7432;48.728;9.154;2023-04-01T02:21:17;95254.97;;;7.58;98.97
14689;BME280;7432;48.728;9.154;2023-04-01T02:23:46;95251.88;;;7.48;99.02
14689;BME280;7432;48.728;9.154;2023-04-01T02:26:15;95253.97;;;7.45;98.55
14689;BME280;7432;48.728;9.154;2023-04-01T02:28:43;95254.28;;;7.42;99.25
14689;BME280;7432;48.728;9.154;2023-04-01T02:31:12;95254.28;;;7.42;99.37
14689;BME280;7432;48.728;9.154;2023-04-01T02:33:40;95257.13;;;7.47;98.93
14689;BME280;7432;48.728;9.154;2023-04-01T02:36:11;95251.88;;;7.48;97.82
14689;BME280;7432;48.728;9.154;2023-04-01T02:38:38;95249.84;;;7.36;97.67
14689;BME280;7432;48.728;9.154;2023-04-01T02:41:05;95262.38;;;7.31;98.33
14689;BME280;7432;48.728;9.154;2023-04-01T02:43:33;95256.25;;;7.40;98.31
14689;BME280;7432;48.728;9.154;2023-04-01T02:45:59;95261.50;;;7.38;97.80
14689;BME280;7432;48.728;9.154;2023-04-01T02:48:27;95255.03;;;7.28;98.10
14689;BME280;7432;48.728;9.154;2023-04-01T02:50:53;95264.31;;;7.29;97.83
14689;BME280;7432;48.728;9.154;2023-04-01T02:53:19;95256.22;;;7.17;98.92
14689;BME280;7432;48.728;9.154;2023-04-01T02:55:46;95255.59;;;7.15;98.73
14689;BME280;7432;48.728;9.154;2023-04-01T02:58:15;95251.78;;;7.11;98.29
14689;BME280;7432;48.728;9.154;2023-04-01T03:00:43;95249.06;;;7.12;98.55
14689;BME280;7432;48.728;9.154;2023-04-01T03:03:10;95244.31;;;7.01;98.67
14689;BME280;7432;48.728;9.154;2023-04-01T03:05:37;95260.13;;;7.05;97.76
14689;BME280;7432;48.728;9.154;2023-04-01T03:08:04;95260.97;;;6.97;98.33
14689;BME280;7432;48.728;9.154;2023-04-01T03:10:31;95223.31;;;6.83;98.20
14689;BME280;7432;48.728;9.154;2023-04-01T03:12:57;95260.47;;;7.02;97.92
14689;BME280;7432;48.728;9.154;2023-04-01T03:15:24;95254.47;;;7.18;97.24
14689;BME280;7432;48.728;9.154;2023-04-01T03:17:52;95255.69;;;7.22;97.50
14689;BME280;7432;48.728;9.154;2023-04-01T03:20:18;95257.13;;;7.24;97.01
14689;BME280;7432;48.728;9.154;2023-04-01T03:22:45;95252.66;;;7.26;96.79
14689;BME280;7432;48.728;9.154;2023-04-01T03:25:12;95258.09;;;7.23;95.54
14689;BME280;7432;48.728;9.154;2023-04-01T03:27:38;95258.66;;;7.10;96.57
14689;BME280;7432;48.728;9.154;2023-04-01T03:30:06;95263.44;;;7.13;96.75
14689;BME280;7432;48.728;9.154;2023-04-01T03:32:33;95258.59;;;7.18;96.96
14689;BME280;7432;48.728;9.154;2023-04-01T03:35:01;95269.63;;;7.19;97.15
14689;BME280;7432;48.728;9.154;2023-04-01T03:37:27;95260.63;;;7.31;95.84
14689;BME280;7432;48.728;9.154;2023-04-01T03:39:53;95262.22;;;7.32;95.61
14689;BME280;7432;48.728;9.154;2023-04-01T03:42:20;95262.38;;;7.31;95.78
14689;BME280;7432;48.728;9.154;2023-04-01T03:44:46;95265.28;;;7.28;96.10
14689;BME280;7432;48.728;9.154;2023-04-01T03:47:13;95257.59;;;7.28;95.73
14689;BME280;7432;48.728;9.154;2023-04-01T03:49:39;95260.66;;;7.23;95.23
14689;BME280;7432;48.728;9.154;2023-04-01T03:52:09;95255.38;;;7.25;94.97
14689;BME280;7432;48.728;9.154;2023-04-01T03:54:36;95256.16;;;7.25;94.81
14689;BME280;7432;48.728;9.154;2023-04-01T03:57:03;95234.66;;;7.11;94.43
14689;BME280;7432;48.728;9.154;2023-04-01T03:59:29;95252.88;;;7.16;94.54
14689;BME280;7432;48.728;9.154;2023-04-01T04:01:56;95253.72;;;7.09;94.79
14689;BME280;7432;48.728;9.154;2023-04-01T04:04:22;95245.00;;;6.95;95.14
14689;BME280;7432;48.728;9.154;2023-04-01T04:06:48;95243.63;;;6.85;95.44
14689;BME280;7432;48.728;9.154;2023-04-01T04:09:17;95244.56;;;6.84;95.13
14689;BME280;7432;48.728;9.154;2023-04-01T04:11:43;95238.66;;;6.83;95.03
14689;BME280;7432;48.728;9.154;2023-04-01T04:14:09;95247.78;;;6.78;95.67
14689;BME280;7432;48.728;9.154;2023-04-01T04:16:36;95244.53;;;6.61;95.46
14689;BME280;7432;48.728;9.154;2023-04-01T04:19:02;95252.66;;;6.65;95.80
14689;BME280;7432;48.728;9.154;2023-04-01T04:21:29;95246.69;;;6.72;95.45
14689;BME280;7432;48.728;9.154;2023-04-01T04:23:55;95247.47;;;6.81;95.55
14689;BME280;7432;48.728;9.154;2023-04-01T04:26:23;95245.56;;;6.83;94.37
14689;BME280;7432;48.728;9.154;2023-04-01T04:28:50;95233.09;;;6.80;94.51
14689;BME280;7432;48.728;9.154;2023-04-01T04:31:19;95240.47;;;6.75;94.84
14689;BME280;7432;48.728;9.154;2023-04-01T04:33:46;95227.06;;;6.65;94.87
14689;BME280;7432;48.728;9.154;2023-04-01T04:36:12;95240.16;;;6.70;94.88
14689;BME280;7432;48.728;9.154;2023-04-01T04:38:39;95238.78;;;6.59;95.70
14689;BME280;7432;48.728;9.154;2023-04-01T04:41:08;95238.00;;;6.50;96.61
14689;BME280;7432;48.728;9.154;2023-04-01T04:43:36;95229.72;;;6.48;96.61
14689;BME280;7432;48.728;9.154;2023-04-01T04:46:04;95243.59;;;6.54;96.60
14689;BME280;7432;48.728;9.154;2023-04-01T04:48:31;95236.53;;;6.56;97.51
14689;BME280;7432;48.728;9.154;2023-04-01T04:50:57;95232.53;;;6.62;97.71
14689;BME280;7432;48.728;9.154;2023-04-01T04:53:23;95241.94;;;6.69;96.81
14689;BME280;7432;48.728;9.154;2023-04-01T04:55:50;95213.97;;;6.68;95.96
14689;BME280;7432;48.728;9.154;2023-04-01T04:58:17;95240.59;;;6.81;96.55
14689;BME280;7432;48.728;9.154;2023-04-01T05:00:45;95235.75;;;6.86;96.39
14689;BME280;7432;48.728;9.154;2023-04-01T05:03:13;95234.97;;;6.86;96.41
14689;BME280;7432;48.728;9.154;2023-04-01T05:05:40;95229.13;;;6.77;96.09
14689;BME280;7432;48.728;9.154;2023-04-01T05:08:13;95230.69;;;6.78;96.98
14689;BME280;7432;48.728;9.154;2023-04-01T05:10:40;95222.53;;;6.83;96.47
14689;BME280;7432;48.728;9.154;2023-04-01T05:13:06;95226.13;;;6.96;96.31
14689;BME280;7432;48.728;9.154;2023-04-01T05:15:33;95223.81;;;7.09;95.95
14689;BME280;7432;48.728;9.154;2023-04-01T05:18:00;95213.84;;;7.14;94.55
14689;BME280;7432;48.728;9.154;2023-04-01T05:20:27;95212.09;;;7.15;96.11
14689;BME280;7432;48.728;9.154;2023-04-01T05:22:55;95214.47;;;7.16;96.29
14689;BME280;7432;48.728;9.154;2023-04-01T05:25:22;95212.03;;;7.23;95.68
14689;BME280;7432;48.728;9.154;2023-04-01T05:27:48;95204.00;;;7.26;94.97
14689;BME280;7432;48.728;9.154;2023-04-01T05:30:16;95198.03;;;7.34;94.53
14689;BME280;7432;48.728;9.154;2023-04-01T05:32:42;95201.03;;;7.37;94.27
14689;BME280;7432;48.728;9.154;2023-04-01T05:35:11;95189.19;;;7.36;94.33
14689;BME280;7432;48.728;9.154;2023-04-01T05:37:37;95207.34;;;7.49;93.88
14689;BME280;7432;48.728;9.154;2023-04-01T05:40:05;95210.81;;;7.56;92.51
14689;BME280;7432;48.728;9.154;2023-04-01T05:42:33;95203.06;;;7.64;91.93
14689;BME280;7432;48.728;9.154;2023-04-01T05:44:59;95194.31;;;7.73;91.50
14689;BME280;7432;48.728;9.154;2023-04-01T05:47:25;95202.97;;;7.72;91.48
14689;BME280;7432;48.728;9.154;2023-04-01T05:49:52;95203.72;;;7.81;90.80
14689;BME280;7432;48.728;9.154;2023-04-01T05:52:19;95198.06;;;7.86;90.41
14689;BME280;7432;48.728;9.154;2023-04-01T05:54:46;95201.22;;;7.88;89.25
14689;BME280;7432;48.728;9.154;2023-04-01T05:57:12;95200.78;;;7.99;89.14
14689;BME280;7432;48.728;9.154;2023-04-01T05:59:38;95205.50;;;8.10;88.09
14689;BME280;7432;48.728;9.154;2023-04-01T06:02:05;95186.59;;;8.11;87.14
14689;BME280;7432;48.728;9.154;2023-04-01T06:04:37;95202.31;;;8.37;86.30
14689;BME280;7432;48.728;9.154;2023-04-01T06:07:09;95200.91;;;8.49;85.86
14689;BME280;7432;48.728;9.154;2023-04-01T06:09:38;95182.75;;;8.65;84.83
14689;BME280;7432;48.728;9.154;2023-04-01T06:15:04;95181.63;;;8.89;83.33
14689;BME280;7432;48.728;9.154;2023-04-01T06:17:47;95183.25;;;8.97;83.67
14689;BME280;7432;48.728;9.154;2023-04-01T06:20:21;95179.38;;;9.01;82.88
14689;BME280;7432;48.728;9.154;2023-04-01T06:23:04;95177.72;;;9.14;81.54
14689;BME280;7432;48.728;9.154;2023-04-01T06:25:58;95175.75;;;9.37;80.53
14689;BME280;7432;48.728;9.154;2023-04-01T06:29:01;95185.66;;;9.40;79.94
14689;BME280;7432;48.728;9.154;2023-04-01T06:31:42;95188.66;;;9.44;79.15
14689;BME280;7432;48.728;9.154;2023-04-01T06:34:44;95177.66;;;9.29;79.74
14689;BME280;7432;48.728;9.154;2023-04-01T06:37:27;95161.63;;;9.06;80.02
14689;BME280;7432;48.728;9.154;2023-04-01T06:40:11;95181.63;;;9.31;79.84
14689;BME280;7432;48.728;9.154;2023-04-01T06:42:52;95187.06;;;9.22;79.75
14689;BME280;7432;48.728;9.154;2023-04-01T06:45:30;95196.88;;;9.12;80.72
14689;BME280;7432;48.728;9.154;2023-04-01T06:48:15;95192.22;;;9.22;81.18
14689;BME280;7432;48.728;9.154;2023-04-01T06:50:53;95190.94;;;9.11;81.51
14689;BME280;7432;48.728;9.154;2023-04-01T06:53:29;95181.38;;;9.05;82.04
14689;BME280;7432;48.728;9.154;2023-04-01T06:56:02;95186.00;;;9.10;82.41
14689;BME280;7432;48.728;9.154;2023-04-01T06:58:36;95175.31;;;9.13;82.18
14689;BME280;7432;48.728;9.154;2023-04-01T07:01:06;95160.47;;;9.08;82.23
14689;BME280;7432;48.728;9.154;2023-04-01T07:03:36;95186.22;;;9.36;80.59
14689;BME280;7432;48.728;9.154;2023-04-01T07:06:06;95167.41;;;9.29;80.40
14689;BME280;7432;48.728;9.154;2023-04-01T07:08:35;95194.81;;;9.49;80.01
14689;BME280;7432;48.728;9.154;2023-04-01T07:11:04;95190.13;;;9.53;81.12
14689;BME280;7432;48.728;9.154;2023-04-01T07:13:34;95186.41;;;9.62;80.27
14689;BME280;7432;48.728;9.154;2023-04-01T07:16:11;95195.19;;;9.46;80.24
14689;BME280;7432;48.728;9.154;2023-04-01T07:18:42;95191.41;;;9.42;81.16
14689;BME280;7432;48.728;9.154;2023-04-01T07:21:23;95188.91;;;9.28;83.37
14689;BME280;7432;48.728;9.154;2023-04-01T07:23:52;95195.88;;;9.34;83.20
14689;BME280;7432;48.728;9.154;2023-04-01T07:26:22;95189.03;;;9.20;83.07
14689;BME280;7432;48.728;9.154;2023-04-01T07:28:51;95196.66;;;9.34;83.42
14689;BME280;7432;48.728;9.154;2023-04-01T07:31:27;95202.47;;;9.22;82.54
14689;BME280;7432;48.728;9.154;2023-04-01T07:34:05;95203.97;;;9.31;82.58
14689;BME280;7432;48.728;9.154;2023-04-01T07:36:39;95214.59;;;9.28;82.29
14689;BME280;7432;48.728;9.154;2023-04-01T07:39:15;95212.41;;;9.25;81.89
14689;BME280;7432;48.728;9.154;2023-04-01T07:41:51;95211.59;;;9.24;82.60
14689;BME280;7432;48.728;9.154;2023-04-01T07:44:29;95214.16;;;9.24;82.96
14689;BME280;7432;48.728;9.154;2023-04-01T07:47:19;95217.59;;;9.31;82.56
14689;BME280;7432;48.728;9.154;2023-04-01T07:50:00;95206.88;;;9.28;83.10
14689;BME280;7432;48.728;9.154;2023-04-01T07:52:33;95214.72;;;9.41;82.99
14689;BME280;7432;48.728;9.154;2023-04-01T07:55:06;95219.91;;;9.47;82.62
14689;BME280;7432;48.728;9.154;2023-04-01T07:57:41;95225.09;;;9.54;82.91
14689;BME280;7432;48.728;9.154;2023-04-01T08:00:13;95219.44;;;9.59;82.16
14689;BME280;7432;48.728;9.154;2023-04-01T08:02:54;95222.03;;;9.65;81.46
14689;BME280;7432;48.728;9.154;2023-04-01T08:05:27;95217.06;;;9.85;80.53
14689;BME280;7432;48.728;9.154;2023-04-01T08:08:01;95220.66;;;9.90;81.66
14689;BME280;7432;48.728;9.154;2023-04-01T08:10:35;95220.19;;;9.80;81.15
14689;BME280;7432;48.728;9.154;2023-04-01T08:13:12;95222.25;;;9.91;79.89
14689;BME280;7432;48.728;9.154;2023-04-01T08:15:48;95216.22;;;9.78;81.00
14689;BME280;7432;48.728;9.154;2023-04-01T08:18:25;95217.13;;;9.70;82.11
14689;BME280;7432;48.728;9.154;2023-04-01T08:20:57;95227.28;;;9.78;81.31
14689;BME280;7432;48.728;9.154;2023-04-01T08:23:27;95219.19;;;9.81;82.80
14689;BME280;7432;48.728;9.154;2023-04-01T08:26:00;95226.91;;;9.81;82.61
14689;BME280;7432;48.728;9.154;2023-04-01T08:28:32;95225.38;;;9.87;81.72
14689;BME280;7432;48.728;9.154;2023-04-01T08:31:04;95229.44;;;9.75;82.17
14689;BME280;7432;48.728;9.154;2023-04-01T08:33:32;95223.72;;;9.79;82.30
14689;BME280;7432;48.728;9.154;2023-04-01T08:36:03;95239.97;;;9.80;84.10
14689;BME280;7432;48.728;9.154;2023-04-01T08:38:34;95234.31;;;9.91;83.88
14689;BME280;7432;48.728;9.154;2023-04-01T08:41:27;95209.50;;;9.56;85.57
14689;BME280;7432;48.728;9.154;2023-04-01T08:44:15;95233.97;;;9.51;85.63
14689;BME280;7432;48.728;9.154;2023-04-01T08:46:56;95240.53;;;9.33;87.24
14689;BME280;7432;48.728;9.154;2023-04-01T08:49:51;95245.22;;;9.08;89.32
14689;BME280;7432;48.728;9.154;2023-04-01T08:52:33;95227.44;;;9.07;89.52
14689;BME280;7432;48.728;9.154;2023-04-01T08:58:23;95223.81;;;8.65;91.11
14689;BME280;7432;48.728;9.154;2023-04-01T09:00:57;95225.31;;;8.60;91.88
14689;BME280;7432;48.728;9.154;2023-04-01T09:03:55;95223.19;;;8.63;92.02
14689;BME280;7432;48.728;9.154;2023-04-01T09:06:34;95224.50;;;8.59;92.28
14689;BME280;7432;48.728;9.154;2023-04-01T09:09:34;95226.78;;;8.69;89.76
14689;BME280;7432;48.728;9.154;2023-04-01T09:12:31;95222.13;;;8.93;91.32
14689;BME280;7432;48.728;9.154;2023-04-01T09:15:27;95226.31;;;9.16;91.04
14689;BME280;7432;48.728;9.154;2023-04-01T09:21:19;95231.63;;;10.05;85.73
14689;BME280;7432;48.728;9.154;2023-04-01T09:24:22;95231.75;;;10.19;83.99
14689;BME280;7432;48.728;9.154;2023-04-01T09:27:03;95249.09;;;10.38;82.38
14689;BME280;7432;48.728;9.154;2023-04-01T09:29:43;95244.81;;;10.51;83.73
14689;BME280;7432;48.728;9.154;2023-04-01T09:32:26;95250.59;;;11.07;79.51
14689;BME280;7432;48.728;9.154;2023-04-01T09:35:05;95243.53;;;11.36;77.13
14689;BME280;7432;48.728;9.154;2023-04-01T09:37:52;95243.19;;;10.91;77.33
14689;BME280;7432;48.728;9.154;2023-04-01T09:40:24;95246.44;;;10.59;78.63
14689;BME280;7432;48.728;9.154;2023-04-01T09:43:12;95247.50;;;10.37;80.31
14689;BME280;7432;48.728;9.154;2023-04-01T09:45:48;95221.16;;;10.07;79.72
14689;BME280;7432;48.728;9.154;2023-04-01T09:48:30;95262.41;;;10.14;81.20
14689;BME280;7432;48.728;9.154;2023-04-01T09:51:24;95253.34;;;9.96;81.40
14689;BME280;7432;48.728;9.154;2023-04-01T09:54:04;95258.47;;;9.96;82.59
14689;BME280;7432;48.728;9.154;2023-04-01T09:59:52;95259.69;;;10.00;80.61
14689;BME280;7432;48.728;9.154;2023-04-01T10:02:55;95251.81;;;10.08;79.77
14689;BME280;7432;48.728;9.154;2023-04-01T10:11:53;95259.56;;;9.81;81.05
14689;BME280;7432;48.728;9.154;2023-04-01T10:14:38;95264.13;;;9.85;80.13
14689;BME280;7432;48.728;9.154;2023-04-01T10:17:26;95269.97;;;10.00;81.52
14689;BME280;7432;48.728;9.154;2023-04-01T10:20:22;95269.44;;;10.05;78.94
14689;BME280;7432;48.728;9.154;2023-04-01T10:23:03;95268.75;;;10.18;78.53
14689;BME280;7432;48.728;9.154;2023-04-01T10:25:57;95268.66;;;10.66;77.21
14689;BME280;7432;48.728;9.154;2023-04-01T10:28:56;95270.09;;;10.76;75.04
14689;BME280;7432;48.728;9.154;2023-04-01T10:31:42;95271.22;;;11.20;74.86
14689;BME280;7432;48.728;9.154;2023-04-01T10:34:38;95266.75;;;11.62;72.79
14689;BME280;7432;48.728;9.154;2023-04-01T10:37:23;95273.56;;;11.89;70.94
14689;BME280;7432;48.728;9.154;2023-04-01T10:40:29;95275.34;;;12.08;69.19
14689;BME280;7432;48.728;9.154;2023-04-01T10:43:22;95274.16;;;12.11;69.42
14689;BME280;7432;48.728;9.154;2023-04-01T10:46:17;95276.91;;;12.35;68.76
14689;BME280;7432;48.728;9.154;2023-04-01T10:49:00;95271.72;;;12.62;66.98
14689;BME280;7432;48.728;9.154;2023-04-01T10:51:59;95278.69;;;12.61;65.93
14689;BME280;7432;48.728;9.154;2023-04-01T10:54:43;95279.25;;;12.63;64.29
14689;BME280;7432;48.728;9.154;2023-04-01T10:57:24;95281.25;;;12.55;64.38
14689;BME280;7432;48.728;9.154;2023-04-01T11:00:12;95278.91;;;12.46;64.97
14689;BME280;7432;48.728;9.154;2023-04-01T11:03:24;95282.72;;;11.98;66.74
14689;BME280;7432;48.728;9.154;2023-04-01T11:09:36;95265.38;;;11.53;68.74
14689;BME280;7432;48.728;9.154;2023-04-01T11:12:25;95279.84;;;11.47;68.35
14689;BME280;7432;48.728;9.154;2023-04-01T11:15:22;95265.94;;;11.48;67.94
14689;BME280;7432;48.728;9.154;2023-04-01T11:21:55;95269.75;;;11.52;68.20
14689;BME280;7432;48.728;9.154;2023-04-01T11:25:02;95280.31;;;11.90;67.98
14689;BME280;7432;48.728;9.154;2023-04-01T11:27:46;95275.94;;;12.17;67.14
14689;BME280;7432;48.728;9.154;2023-04-01T11:30:24;95283.69;;;12.30;66.00
14689;BME280;7432;48.728;9.154;2023-04-01T11:33:00;95281.50;;;12.33;66.28
14689;BME280;7432;48.728;9.154;2023-04-01T11:35:55;95288.47;;;12.00;65.98
14689;BME280;7432;48.728;9.154;2023-04-01T11:38:39;95293.25;;;12.10;65.43
14689;BME280;7432;48.728;9.154;2023-04-01T11:41:19;95290.25;;;12.00;66.97
14689;BME280;7432;48.728;9.154;2023-04-01T11:44:00;95299.00;;;11.99;66.25
14689;BME280;7432;48.728;9.154;2023-04-01T11:46:39;95296.59;;;11.84;65.54
14689;BME280;7432;48.728;9.154;2023-04-01T11:49:25;95297.78;;;11.88;65.91
14689;BME280;7432;48.728;9.154;2023-04-01T11:52:04;95311.47;;;11.69;66.90
14689;BME280;7432;48.728;9.154;2023-04-01T11:54:51;95298.38;;;11.77;66.69
14689;BME280;7432;48.728;9.154;2023-04-01T11:57:40;95301.47;;;11.59;66.43
14689;BME280;7432;48.728;9.154;2023-04-01T12:00:30;95307.41;;;11.47;67.51
14689;BME280;7432;48.728;9.154;2023-04-01T12:03:10;95307.16;;;11.35;67.49
14689;BME280;7432;48.728;9.154;2023-04-01T12:05:46;95304.94;;;11.19;68.64
14689;BME280;7432;48.728;9.154;2023-04-01T12:08:28;95308.91;;;11.21;68.12
14689;BME280;7432;48.728;9.154;2023-04-01T12:11:04;95314.44;;;11.18;68.68
14689;BME280;7432;48.728;9.154;2023-04-01T12:13:40;95309.13;;;11.26;68.31
14689;BME280;7432;48.728;9.154;2023-04-01T12:16:21;95310.16;;;11.39;68.98
14689;BME280;7432;48.728;9.154;2023-04-01T12:18:53;95306.81;;;11.45;70.13
14689;BME280;7432;48.728;9.154;2023-04-01T12:21:26;95294.88;;;11.37;70.33
14689;BME280;7432;48.728;9.154;2023-04-01T12:24:11;95304.16;;;11.25;69.90
14689;BME280;7432;48.728;9.154;2023-04-01T12:26:48;95314.94;;;11.42;70.37
14689;BME280;7432;48.728;9.154;2023-04-01T12:29:41;95320.53;;;11.65;69.46
14689;BME280;7432;48.728;9.154;2023-04-01T12:32:20;95318.84;;;12.05;70.00
14689;BME280;7432;48.728;9.154;2023-04-01T12:34:58;95306.72;;;12.31;68.66
14689;BME280;7432;48.728;9.154;2023-04-01T12:37:35;95303.34;;;12.37;67.36
14689;BME280;7432;48.728;9.154;2023-04-01T12:40:24;95320.81;;;12.35;67.19
14689;BME280;7432;48.728;9.154;2023-04-01T12:43:09;95308.53;;;12.37;65.96
14689;BME280;7432;48.728;9.154;2023-04-01T12:45:45;95317.22;;;12.56;65.02
14689;BME280;7432;48.728;9.154;2023-04-01T12:48:41;95317.38;;;12.74;65.79
14689;BME280;7432;48.728;9.154;2023-04-01T12:51:47;95320.78;;;12.55;64.92
14689;BME280;7432;48.728;9.154;2023-04-01T12:54:29;95326.38;;;12.45;64.63
14689;BME280;7432;48.728;9.154;2023-04-01T12:57:15;95323.41;;;12.42;65.66
14689;BME280;7432;48.728;9.154;2023-04-01T13:00:00;95329.53;;;12.61;64.66
14689;BME280;7432;48.728;9.154;2023-04-01T13:02:40;95319.56;;;12.77;64.15
14689;BME280;7432;48.728;9.154;2023-04-01T13:08:27;95329.31;;;12.75;64.16
14689;BME280;7432;48.728;9.154;2023-04-01T13:11:04;95339.00;;;12.93;62.99
14689;BME280;7432;48.728;9.154;2023-04-01T13:13:47;95328.66;;;12.93;62.88
14689;BME280;7432;48.728;9.154;2023-04-01T13:16:24;95343.66;;;12.65;64.09
14689;BME280;7432;48.728;9.154;2023-04-01T13:18:57;95330.53;;;12.46;64.58
14689;BME280;7432;48.728;9.154;2023-04-01T13:21:34;95348.63;;;12.07;65.62
14689;BME280;7432;48.728;9.154;2023-04-01T13:24:10;95347.81;;;12.00;66.02
14689;BME280;7432;48.728;9.154;2023-04-01T13:26:46;95342.84;;;11.85;66.61
14689;BME280;7432;48.728;9.154;2023-04-01T13:29:16;95350.38;;;12.13;66.48
14689;BME280;7432;48.728;9.154;2023-04-01T13:31:55;95348.81;;;11.99;65.96
14689;BME280;7432;48.728;9.154;2023-04-01T13:34:38;95348.59;;;12.01;66.35
14689;BME280;7432;48.728;9.154;2023-04-01T13:37:17;95342.66;;;11.94;66.08
14689;BME280;7432;48.728;9.154;2023-04-01T13:39:54;95356.75;;;11.91;65.99
14689;BME280;7432;48.728;9.154;2023-04-01T13:42:25;95364.19;;;11.66;66.95
14689;BME280;7432;48.728;9.154;2023-04-01T13:44:56;95361.84;;;11.71;67.28
14689;BME280;7432;48.728;9.154;2023-04-01T13:47:49;95361.63;;;11.73;67.02
14689;BME280;7432;48.728;9.154;2023-04-01T13:50:47;95354.31;;;11.76;66.61
14689;BME280;7432;48.728;9.154;2023-04-01T13:53:31;95363.69;;;11.91;66.25
14689;BME280;7432;48.728;9.154;2023-04-01T13:56:08;95362.50;;;12.06;66.21
14689;BME280;7432;48.728;9.154;2023-04-01T13:58:52;95355.56;;;12.20;66.63
14689;BME280;7432;48.728;9.154;2023-04-01T14:01:28;95368.09;;;12.29;65.22
14689;BME280;7432;48.728;9.154;2023-04-01T14:04:10;95371.66;;;12.28;64.98
14689;BME280;7432;48.728;9.154;2023-04-01T14:06:57;95366.69;;;12.27;65.53
14689;BME280;7432;48.728;9.154;2023-04-01T14:09:52;95371.25;;;12.18;65.83
14689;BME280;7432;48.728;9.154;2023-04-01T14:12:30;95370.06;;;12.21;66.48
14689;BME280;7432;48.728;9.154;2023-04-01T14:15:38;95364.28;;;12.19;65.96
14689;BME280;7432;48.728;9.154;2023-04-01T14:18:33;95369.25;;;12.01;66.59
14689;BME280;7432;48.728;9.154;2023-04-01T14:21:15;95371.38;;;11.84;67.58
14689;BME280;7432;48.728;9.154;2023-04-01T14:23:56;95375.56;;;11.85;67.91
14689;BME280;7432;48.728;9.154;2023-04-01T14:26:57;95369.19;;;11.81;67.48
14689;BME280;7432;48.728;9.154;2023-04-01T14:29:34;95379.72;;;11.79;68.55
14689;BME280;7432;48.728;9.154;2023-04-01T14:32:11;95378.16;;;11.92;68.14